Time;durP1;ratioP1;P1;durP2;ratioP2;P2;SDS_P1;SDS_P2;PMS_P1;PMS_P2;Temp;Humidity;BMP_temperature;BMP_pressure;BME280_temperature;BME280_humidity;BME280_pressure;Samples;Min_cycle;Max_cycle;Signal;HPM_P1;HPM_P2
2024/02/19 00:01:30;;;;;;;11.90;6.40;;;9.00;99.90;;;;;;5020724;28;20269;-75
2024/02/19 00:03:56;;;;;;;13.93;7.17;;;9.00;99.90;;;;;;5051838;28;20436;-72
2024/02/19 00:06:22;;;;;;;11.57;6.90;;;9.00;99.90;;;;;;5047813;28;20501;-77
2024/02/19 00:08:50;;;;;;;23.20;7.80;;;9.00;99.90;;;;;;5052277;28;20177;-72
2024/02/19 00:11:16;;;;;;;12.63;8.27;;;9.00;99.90;;;;;;5054177;28;20464;-72
2024/02/19 00:13:42;;;;;;;13.80;7.30;;;9.00;99.90;;;;;;5048620;28;20671;-71
2024/02/19 00:16:07;;;;;;;16.60;7.20;;;9.10;99.90;;;;;;5047832;28;20483;-75
2024/02/19 00:18:33;;;;;;;19.27;8.37;;;9.10;99.90;;;;;;5046025;28;20194;-74
2024/02/19 00:20:59;;;;;;;21.60;9.93;;;9.10;99.90;;;;;;5043906;28;20195;-73
2024/02/19 00:23:26;;;;;;;13.67;7.40;;;9.10;99.90;;;;;;5045804;28;20197;-74
2024/02/19 00:25:52;;;;;;;11.20;7.27;;;9.10;99.90;;;;;;5061212;28;20691;-72
2024/02/19 00:28:18;;;;;;;13.87;7.73;;;9.10;99.90;;;;;;5047978;28;20409;-73
2024/02/19 00:30:43;;;;;;;11.57;7.10;;;9.10;99.90;;;;;;5048211;28;20252;-72
2024/02/19 00:33:09;;;;;;;14.70;8.73;;;9.10;99.90;;;;;;5045973;28;20269;-73
2024/02/19 00:35:35;;;;;;;11.57;7.10;;;9.10;99.90;;;;;;5046747;28;20473;-73
2024/02/19 00:38:01;;;;;;;17.30;9.87;;;9.10;99.90;;;;;;5045821;28;20277;-72
2024/02/19 00:40:27;;;;;;;18.23;7.40;;;9.00;99.90;;;;;;5043886;28;20170;-72
2024/02/19 00:42:52;;;;;;;10.40;6.80;;;9.00;99.90;;;;;;5049498;28;20409;-75
2024/02/19 00:45:18;;;;;;;10.87;6.83;;;9.00;99.90;;;;;;5045214;28;20282;-75
2024/02/19 00:47:43;;;;;;;10.53;7.03;;;9.00;99.90;;;;;;5057857;28;20177;-73
2024/02/19 00:50:11;;;;;;;13.57;6.87;;;9.00;99.90;;;;;;5035472;28;20202;-73
2024/02/19 00:52:40;;;;;;;11.83;7.13;;;9.00;99.90;;;;;;5039595;28;20725;-72
2024/02/19 00:55:07;;;;;;;16.17;6.77;;;9.00;99.90;;;;;;5048421;28;20417;-72
2024/02/19 00:57:32;;;;;;;10.83;6.40;;;9.00;99.90;;;;;;5048465;28;20942;-72
2024/02/19 00:59:58;;;;;;;15.27;6.10;;;9.00;99.90;;;;;;5038686;28;20451;-75
2024/02/19 01:02:24;;;;;;;12.67;6.17;;;9.00;99.90;;;;;;5027883;28;20253;-73
2024/02/19 01:04:53;;;;;;;13.83;6.13;;;9.10;99.90;;;;;;5052057;28;20197;-74
2024/02/19 01:07:22;;;;;;;12.10;6.03;;;9.10;99.90;;;;;;5033373;28;20216;-72
2024/02/19 01:09:48;;;;;;;10.37;5.00;;;9.10;99.90;;;;;;5052236;28;20820;-72
2024/02/19 01:12:14;;;;;;;10.17;5.23;;;9.10;99.90;;;;;;5059599;28;20413;-73
2024/02/19 01:14:40;;;;;;;9.73;5.43;;;9.10;99.90;;;;;;5040168;28;20190;-72
2024/02/19 01:17:09;;;;;;;16.57;6.23;;;9.10;99.90;;;;;;5041470;28;20433;-71
2024/02/19 01:19:35;;;;;;;16.33;4.90;;;9.10;99.90;;;;;;5039165;28;20731;-72
2024/02/19 01:22:01;;;;;;;11.50;4.03;;;9.10;99.90;;;;;;5041207;28;20420;-72
2024/02/19 01:24:26;;;;;;;9.63;3.57;;;9.10;99.90;;;;;;5052585;28;20503;-72
2024/02/19 01:26:52;;;;;;;8.70;3.60;;;9.20;99.90;;;;;;5040361;28;20476;-72
2024/02/19 01:29:18;;;;;;;13.20;4.07;;;9.20;99.90;;;;;;5042462;28;20213;-74
2024/02/19 01:31:45;;;;;;;15.77;4.43;;;9.20;99.90;;;;;;5001041;28;1048205;-73
2024/02/19 01:34:11;;;;;;;11.57;4.53;;;9.20;99.90;;;;;;5045987;28;20296;-72
2024/02/19 01:36:37;;;;;;;7.73;3.40;;;9.20;99.90;;;;;;5053353;28;20907;-72
2024/02/19 01:39:02;;;;;;;14.10;3.43;;;9.20;99.90;;;;;;5043033;28;20508;-73
2024/02/19 01:41:28;;;;;;;15.83;3.57;;;9.20;99.90;;;;;;5036665;28;20511;-72
2024/02/19 01:43:54;;;;;;;11.73;3.50;;;9.20;99.90;;;;;;5052602;28;20649;-73
2024/02/19 01:46:20;;;;;;;11.77;4.00;;;9.20;99.90;;;;;;5044143;28;20440;-72
2024/02/19 01:48:46;;;;;;;11.80;3.90;;;9.20;99.90;;;;;;5038701;28;20594;-73
2024/02/19 01:51:15;;;;;;;11.60;3.43;;;9.20;99.90;;;;;;5038934;28;20498;-73
2024/02/19 01:53:41;;;;;;;10.67;3.83;;;9.20;99.90;;;;;;5046124;28;20500;-73
2024/02/19 01:56:07;;;;;;;12.80;3.93;;;9.20;99.90;;;;;;5046659;28;20449;-73
2024/02/19 01:58:34;;;;;;;13.67;4.67;;;9.10;99.90;;;;;;5042986;28;20437;-72
2024/02/19 02:01:00;;;;;;;13.10;4.27;;;9.20;99.90;;;;;;5050389;28;20190;-72
2024/02/19 02:03:28;;;;;;;12.40;4.10;;;9.20;99.90;;;;;;5037361;28;20766;-72
2024/02/19 02:05:54;;;;;;;10.60;4.17;;;9.10;99.90;;;;;;5032583;28;20325;-73
2024/02/19 02:08:20;;;;;;;10.83;4.00;;;9.10;99.90;;;;;;5036346;28;20860;-72
2024/02/19 02:10:46;;;;;;;10.40;4.00;;;9.10;99.90;;;;;;5039895;28;20198;-73
2024/02/19 02:13:11;;;;;;;10.70;3.30;;;9.20;99.90;;;;;;5045366;28;20436;-72
2024/02/19 02:15:37;;;;;;;15.07;3.70;;;9.20;99.90;;;;;;5048019;28;20262;-72
2024/02/19 02:18:03;;;;;;;19.97;3.80;;;9.20;99.90;;;;;;5036672;28;20232;-72
2024/02/19 02:20:30;;;;;;;9.80;3.13;;;9.20;99.90;;;;;;5049470;28;20198;-72
2024/02/19 02:22:57;;;;;;;11.00;3.70;;;9.10;99.90;;;;;;5053808;28;20189;-72
2024/02/19 02:25:22;;;;;;;11.93;3.27;;;9.10;99.90;;;;;;5035597;28;20461;-73
2024/02/19 02:27:48;;;;;;;8.93;3.23;;;9.10;99.90;;;;;;5045116;28;20733;-72
2024/02/19 02:30:14;;;;;;;10.40;3.23;;;9.10;99.90;;;;;;5046340;28;20218;-72
2024/02/19 02:32:39;;;;;;;12.63;3.40;;;9.10;99.90;;;;;;5047684;28;20356;-73
2024/02/19 02:35:05;;;;;;;12.63;2.73;;;9.10;99.90;;;;;;5040450;28;20459;-71
2024/02/19 02:37:31;;;;;;;11.33;2.40;;;9.20;99.90;;;;;;5043907;28;20191;-73
2024/02/19 02:39:56;;;;;;;18.03;4.50;;;9.20;99.90;;;;;;5044370;28;20190;-73
2024/02/19 02:42:22;;;;;;;11.23;2.23;;;9.20;99.90;;;;;;5051750;28;20185;-73
2024/02/19 02:44:47;;;;;;;7.50;2.67;;;9.20;99.90;;;;;;5044478;28;20200;-73
2024/02/19 02:47:13;;;;;;;8.03;2.53;;;9.20;99.90;;;;;;5044564;28;20637;-72
2024/02/19 02:49:39;;;;;;;13.10;2.83;;;9.20;99.90;;;;;;5041394;28;20292;-71
2024/02/19 02:52:04;;;;;;;11.50;2.70;;;9.20;99.90;;;;;;5040620;28;20169;-73
2024/02/19 02:54:30;;;;;;;13.37;2.27;;;9.30;99.90;;;;;;5044034;28;20566;-72
2024/02/19 02:56:56;;;;;;;10.60;2.37;;;9.30;99.90;;;;;;5040924;28;20248;-73
2024/02/19 02:59:21;;;;;;;7.23;1.83;;;9.20;99.90;;;;;;5047119;28;20201;-72
2024/02/19 03:01:47;;;;;;;10.53;2.50;;;9.20;99.90;;;;;;5047933;28;20416;-72
2024/02/19 03:04:13;;;;;;;18.10;2.97;;;9.20;99.90;;;;;;5042417;28;20209;-71
2024/02/19 03:06:39;;;;;;;8.50;2.20;;;9.20;99.90;;;;;;5038217;28;20448;-73
2024/02/19 03:09:05;;;;;;;12.60;4.03;;;9.10;99.90;;;;;;5044712;28;20581;-72
2024/02/19 03:11:30;;;;;;;11.23;3.30;;;9.10;99.90;;;;;;5046184;28;20204;-72
2024/02/19 03:13:56;;;;;;;14.67;3.83;;;9.10;99.90;;;;;;5052811;28;20417;-73
2024/02/19 03:16:22;;;;;;;13.67;3.10;;;9.10;99.90;;;;;;5053786;28;20209;-72
2024/02/19 03:18:47;;;;;;;7.83;2.50;;;9.20;99.90;;;;;;5040010;28;20190;-72
2024/02/19 03:21:17;;;;;;;8.70;2.60;;;9.10;99.90;;;;;;5041997;28;20224;-72
2024/02/19 03:23:52;;;;;;;9.97;3.23;;;9.10;99.90;;;;;;5039847;28;20255;-72
2024/02/19 03:26:25;;;;;;;10.13;3.07;;;9.10;99.90;;;;;;5053332;28;20568;-73
2024/02/19 03:28:51;;;;;;;9.90;2.90;;;9.00;99.90;;;;;;5046366;28;20872;-72
2024/02/19 03:31:17;;;;;;;15.70;3.20;;;9.00;99.90;;;;;;5039958;28;20469;-73
2024/02/19 03:33:42;;;;;;;11.03;3.23;;;8.90;99.90;;;;;;5047308;28;20705;-72
2024/02/19 03:36:09;;;;;;;8.40;2.83;;;9.00;99.90;;;;;;5047225;28;20436;-74
2024/02/19 03:38:36;;;;;;;11.20;2.80;;;8.90;99.90;;;;;;5051669;28;20194;-73
2024/02/19 03:41:04;;;;;;;15.73;2.80;;;8.90;99.90;;;;;;5044728;28;20507;-73
2024/02/19 03:43:31;;;;;;;11.60;3.13;;;8.90;99.90;;;;;;5020321;28;20429;-73
2024/02/19 03:45:57;;;;;;;10.83;2.83;;;8.80;99.90;;;;;;5044603;28;20437;-72
2024/02/19 03:48:22;;;;;;;12.83;2.70;;;8.90;99.90;;;;;;5043579;28;20706;-72
2024/02/19 03:50:48;;;;;;;8.73;1.90;;;8.90;99.90;;;;;;5044818;28;20456;-72
2024/02/19 03:53:14;;;;;;;16.53;2.63;;;8.90;99.90;;;;;;5034307;28;20534;-72
2024/02/19 03:55:39;;;;;;;15.17;3.37;;;8.90;99.90;;;;;;5036769;28;20218;-72
2024/02/19 03:58:05;;;;;;;7.00;2.00;;;8.80;99.90;;;;;;5042291;28;20473;-72
2024/02/19 04:00:31;;;;;;;9.10;2.27;;;8.80;99.90;;;;;;5047713;28;20185;-72
2024/02/19 04:02:57;;;;;;;4.67;2.27;;;8.90;99.90;;;;;;5050587;28;20435;-72
2024/02/19 04:05:22;;;;;;;5.10;1.87;;;8.90;99.90;;;;;;5048642;28;20248;-72
2024/02/19 04:07:48;;;;;;;6.93;1.87;;;8.90;99.90;;;;;;5044532;28;20625;-74
2024/02/19 04:10:13;;;;;;;7.10;2.50;;;8.80;99.90;;;;;;5051000;28;20255;-72
2024/02/19 04:12:39;;;;;;;5.80;2.33;;;8.90;99.90;;;;;;5051595;28;20174;-72
2024/02/19 04:15:05;;;;;;;7.50;2.20;;;8.80;99.90;;;;;;5024519;28;20218;-73
2024/02/19 04:17:34;;;;;;;9.33;1.97;;;8.80;99.90;;;;;;5029410;28;20209;-73
2024/02/19 04:19:59;;;;;;;6.83;2.20;;;8.90;99.90;;;;;;5041575;28;20405;-73
2024/02/19 04:22:25;;;;;;;7.67;2.20;;;8.80;99.90;;;;;;5044633;28;20424;-72
2024/02/19 04:24:51;;;;;;;15.03;3.10;;;8.90;99.90;;;;;;5042496;28;20221;-72
2024/02/19 04:27:17;;;;;;;12.23;2.80;;;8.90;99.90;;;;;;5040784;28;20208;-72
2024/02/19 04:29:44;;;;;;;9.00;2.20;;;8.80;99.90;;;;;;5044335;28;20874;-73
2024/02/19 04:32:09;;;;;;;9.33;2.43;;;8.80;99.90;;;;;;5046310;28;20456;-73
2024/02/19 04:34:35;;;;;;;12.17;2.93;;;8.80;99.90;;;;;;5036725;28;20698;-73
2024/02/19 04:37:06;;;;;;;14.63;3.03;;;8.80;99.90;;;;;;5047037;28;20774;-72
2024/02/19 04:39:33;;;;;;;13.13;2.83;;;8.80;99.90;;;;;;5048084;28;20181;-71
2024/02/19 04:42:00;;;;;;;10.70;3.00;;;8.80;99.90;;;;;;5046202;28;20427;-71
2024/02/19 04:44:26;;;;;;;7.30;2.47;;;8.80;99.90;;;;;;5047636;28;20425;-73
2024/02/19 04:46:51;;;;;;;6.33;2.80;;;8.80;99.90;;;;;;5037887;28;20441;-72
2024/02/19 04:49:17;;;;;;;11.33;3.00;;;8.80;99.90;;;;;;5044006;28;20210;-73
2024/02/19 04:51:42;;;;;;;11.70;2.57;;;8.80;99.90;;;;;;5045817;28;20213;-71
2024/02/19 04:54:08;;;;;;;6.03;2.40;;;8.80;99.90;;;;;;5043655;28;20194;-73
2024/02/19 04:56:34;;;;;;;9.87;2.80;;;8.80;99.90;;;;;;5046865;28;20209;-73
2024/02/19 04:59:00;;;;;;;15.53;3.27;;;8.80;99.90;;;;;;5052948;28;20194;-72
2024/02/19 05:01:33;;;;;;;10.07;2.77;;;8.90;99.90;;;;;;5047227;28;20182;-73
2024/02/19 05:03:59;;;;;;;13.17;3.57;;;8.90;99.90;;;;;;5029128;28;20768;-73
2024/02/19 05:06:24;;;;;;;12.00;3.40;;;8.90;99.90;;;;;;5028223;28;20500;-73
2024/02/19 05:08:50;;;;;;;9.03;3.20;;;8.90;99.90;;;;;;5044163;28;20425;-73
2024/02/19 05:11:16;;;;;;;11.20;3.67;;;8.90;99.90;;;;;;5028265;28;20262;-73
2024/02/19 05:13:42;;;;;;;7.40;2.70;;;8.90;99.90;;;;;;5050265;28;20355;-72
2024/02/19 05:16:08;;;;;;;8.90;3.17;;;8.90;99.90;;;;;;5030350;28;20491;-73
2024/02/19 05:18:34;;;;;;;9.90;2.83;;;8.90;99.90;;;;;;5048198;28;20596;-73
2024/02/19 05:21:02;;;;;;;5.07;2.10;;;8.90;99.90;;;;;;5050275;28;20417;-72
2024/02/19 05:23:27;;;;;;;4.93;2.00;;;8.90;99.90;;;;;;5048081;28;20953;-74
2024/02/19 05:25:53;;;;;;;6.20;2.30;;;8.90;99.90;;;;;;5054235;28;20448;-74
2024/02/19 05:28:18;;;;;;;8.73;2.20;;;8.90;99.90;;;;;;5036812;28;20225;-71
2024/02/19 05:30:44;;;;;;;12.33;2.33;;;8.90;99.90;;;;;;5060996;28;20280;-72
2024/02/19 05:33:10;;;;;;;10.57;3.90;;;8.90;99.90;;;;;;5063322;28;20181;-73
2024/02/19 05:35:35;;;;;;;7.70;1.70;;;8.90;99.90;;;;;;5049981;28;20251;-74
2024/02/19 05:38:02;;;;;;;6.10;2.00;;;8.90;99.90;;;;;;5037895;28;20198;-75
2024/02/19 05:40:28;;;;;;;10.50;3.00;;;8.90;99.90;;;;;;5043931;28;20220;-73
2024/02/19 05:42:53;;;;;;;12.00;2.60;;;8.90;99.90;;;;;;5041656;28;20831;-74
2024/02/19 05:45:19;;;;;;;7.03;2.30;;;8.90;99.90;;;;;;5029370;28;20187;-73
2024/02/19 05:47:46;;;;;;;5.10;2.20;;;8.90;99.90;;;;;;5054428;28;20194;-73
2024/02/19 05:50:12;;;;;;;8.30;3.40;;;8.90;99.90;;;;;;5038193;28;20217;-73
2024/02/19 05:52:37;;;;;;;3.83;2.00;;;8.90;99.90;;;;;;5051747;28;20412;-73
2024/02/19 05:55:04;;;;;;;8.27;3.00;;;8.90;99.90;;;;;;5051243;28;20186;-74
2024/02/19 05:57:30;;;;;;;7.37;2.63;;;8.90;99.90;;;;;;5056383;28;20440;-75
2024/02/19 05:59:56;;;;;;;6.63;2.87;;;8.90;99.90;;;;;;5054308;28;20408;-75
2024/02/19 06:02:21;;;;;;;4.90;2.20;;;8.90;99.90;;;;;;5054232;28;20185;-72
2024/02/19 06:04:48;;;;;;;6.73;3.20;;;8.90;99.90;;;;;;5047352;28;20198;-75
2024/02/19 06:07:14;;;;;;;7.40;2.53;;;8.90;99.90;;;;;;5055193;28;20636;-72
2024/02/19 06:09:40;;;;;;;7.23;2.37;;;8.90;99.90;;;;;;5051604;28;20424;-74
2024/02/19 06:12:08;;;;;;;6.60;3.80;;;8.90;99.90;;;;;;5034751;28;20423;-73
2024/02/19 06:14:33;;;;;;;5.20;1.93;;;8.90;99.90;;;;;;5049436;28;20506;-77
2024/02/19 06:16:59;;;;;;;7.77;2.70;;;8.90;99.90;;;;;;5038427;28;20529;-77
2024/02/19 06:19:25;;;;;;;7.60;2.67;;;8.90;99.90;;;;;;5032891;28;20195;-75
2024/02/19 06:21:50;;;;;;;12.23;2.73;;;8.90;99.90;;;;;;5047218;28;20204;-73
2024/02/19 06:24:16;;;;;;;13.00;4.47;;;8.90;99.90;;;;;;5048855;28;20592;-76
2024/02/19 06:26:42;;;;;;;5.77;3.00;;;8.90;99.90;;;;;;5035529;28;20205;-76
2024/02/19 06:29:10;;;;;;;8.10;2.43;;;9.00;99.90;;;;;;5036618;28;20230;-75
2024/02/19 06:31:37;;;;;;;7.13;2.50;;;9.00;99.90;;;;;;5039137;28;20279;-75
2024/02/19 06:34:03;;;;;;;7.90;3.50;;;9.00;99.90;;;;;;5038655;28;20435;-75
2024/02/19 06:36:29;;;;;;;6.17;2.90;;;9.00;99.90;;;;;;5016849;28;20853;-76
2024/02/19 06:38:54;;;;;;;9.70;3.53;;;9.00;99.90;;;;;;5046040;28;20412;-77
2024/02/19 06:41:20;;;;;;;7.77;2.17;;;9.00;99.90;;;;;;5038768;28;20209;-77
2024/02/19 06:43:46;;;;;;;6.20;2.27;;;9.00;99.90;;;;;;5056502;28;20208;-74
2024/02/19 06:46:11;;;;;;;4.60;2.00;;;9.00;99.90;;;;;;5041322;28;20232;-75
2024/02/19 06:48:39;;;;;;;7.70;3.13;;;9.00;99.90;;;;;;5058940;28;20251;-77
2024/02/19 06:51:05;;;;;;;11.53;4.00;;;9.00;99.90;;;;;;5034153;28;20268;-77
2024/02/19 06:53:31;;;;;;;8.60;2.70;;;9.00;99.90;;;;;;5025680;28;20628;-75
2024/02/19 06:55:57;;;;;;;6.50;2.70;;;9.00;99.90;;;;;;5026683;28;20210;-75
2024/02/19 06:58:23;;;;;;;11.03;3.27;;;9.00;99.90;;;;;;5051204;28;20178;-74
2024/02/19 07:00:49;;;;;;;7.83;2.60;;;9.10;99.90;;;;;;5039606;28;20435;-74
2024/02/19 07:03:15;;;;;;;14.03;3.73;;;9.10;99.90;;;;;;5057060;28;20193;-76
2024/02/19 07:05:42;;;;;;;15.47;5.07;;;9.10;99.90;;;;;;5005223;28;20441;-77
2024/02/19 07:08:08;;;;;;;11.90;2.87;;;9.10;99.90;;;;;;5019343;28;20471;-73
2024/02/19 07:10:34;;;;;;;6.30;2.83;;;9.10;99.90;;;;;;5053237;28;20465;-74
2024/02/19 07:12:59;;;;;;;6.00;2.67;;;9.10;99.90;;;;;;5027666;28;20205;-74
2024/02/19 07:15:25;;;;;;;6.33;2.80;;;9.20;99.90;;;;;;5038053;28;20473;-77
2024/02/19 07:17:51;;;;;;;6.73;2.73;;;9.20;99.90;;;;;;5057023;28;20178;-76
2024/02/19 07:20:16;;;;;;;9.37;3.20;;;9.20;99.90;;;;;;5045813;28;20278;-79
2024/02/19 07:22:42;;;;;;;8.00;1.97;;;9.20;99.90;;;;;;5062742;28;20185;-76
2024/02/19 07:25:08;;;;;;;4.50;2.33;;;9.30;99.90;;;;;;5015363;28;20182;-78
2024/02/19 07:27:34;;;;;;;4.07;2.20;;;9.30;99.90;;;;;;5047189;28;20289;-76
2024/02/19 07:29:59;;;;;;;5.97;1.93;;;9.30;99.90;;;;;;5037739;28;20564;-75
2024/02/19 07:32:25;;;;;;;9.17;2.90;;;9.30;99.90;;;;;;5014338;28;20633;-77
2024/02/19 07:34:51;;;;;;;8.10;3.20;;;9.30;99.90;;;;;;5042504;28;20471;-75
2024/02/19 07:37:16;;;;;;;7.47;3.10;;;9.40;99.90;;;;;;5057335;28;20312;-76
2024/02/19 07:39:43;;;;;;;6.20;2.60;;;9.40;99.90;;;;;;5046540;28;20204;-76
2024/02/19 07:42:09;;;;;;;6.53;2.50;;;9.30;99.90;;;;;;5056787;28;20259;-78
2024/02/19 07:44:35;;;;;;;12.67;3.70;;;9.40;99.90;;;;;;5035160;28;20840;-78
2024/02/19 07:47:03;;;;;;;6.43;2.73;;;9.40;99.90;;;;;;5039506;28;20706;-78
2024/02/19 07:49:29;;;;;;;6.60;2.50;;;9.40;99.90;;;;;;5032912;28;20438;-74
2024/02/19 07:51:55;;;;;;;7.93;2.83;;;9.50;99.90;;;;;;5054754;28;20398;-75
2024/02/19 07:54:21;;;;;;;9.10;3.10;;;9.50;99.90;;;;;;5034467;28;20253;-77
2024/02/19 07:56:46;;;;;;;4.20;2.10;;;9.50;99.90;;;;;;5025923;28;20449;-77
2024/02/19 07:59:12;;;;;;;5.33;3.60;;;9.60;99.90;;;;;;5042003;28;20201;-75
2024/02/19 08:01:37;;;;;;;4.60;1.97;;;9.60;99.90;;;;;;5051487;28;20249;-76
2024/02/19 08:04:03;;;;;;;10.27;2.70;;;9.60;99.90;;;;;;5057899;28;20198;-75
2024/02/19 08:06:29;;;;;;;4.70;1.73;;;9.70;99.90;;;;;;5028421;28;20203;-77
2024/02/19 08:08:55;;;;;;;8.00;2.70;;;9.70;99.90;;;;;;5032341;28;20277;-74
2024/02/19 08:11:21;;;;;;;8.40;2.47;;;9.70;99.90;;;;;;5030651;28;20209;-75
2024/02/19 08:13:47;;;;;;;6.67;2.47;;;9.80;99.90;;;;;;5022585;28;20428;-76
2024/02/19 08:16:13;;;;;;;6.27;2.67;;;9.80;99.90;;;;;;5050463;28;20431;-76
2024/02/19 08:18:40;;;;;;;9.03;3.10;;;9.90;99.90;;;;;;5063548;28;20579;-73
2024/02/19 08:21:05;;;;;;;12.83;3.10;;;9.90;99.90;;;;;;5039540;28;20441;-74
2024/02/19 08:23:31;;;;;;;9.47;2.70;;;10.00;99.90;;;;;;5049831;28;20449;-74
2024/02/19 08:25:58;;;;;;;3.70;1.90;;;10.00;99.90;;;;;;5032516;28;20215;-76
2024/02/19 08:28:23;;;;;;;11.43;3.60;;;10.10;99.90;;;;;;5039265;28;20197;-75
2024/02/19 08:30:49;;;;;;;8.97;2.80;;;10.30;99.90;;;;;;5060305;28;20472;-74
2024/02/19 08:33:15;;;;;;;9.13;3.10;;;10.40;99.90;;;;;;5030995;28;20186;-74
2024/02/19 08:35:41;;;;;;;4.70;2.50;;;10.50;99.90;;;;;;5032615;28;20206;-75
2024/02/19 08:38:07;;;;;;;7.77;2.47;;;10.50;99.90;;;;;;5040127;28;20450;-76
2024/02/19 08:40:32;;;;;;;10.43;3.40;;;10.60;99.90;;;;;;5030328;28;20426;-75
2024/02/19 08:42:58;;;;;;;5.23;2.40;;;10.70;99.90;;;;;;5038897;28;20204;-77
2024/02/19 08:45:23;;;;;;;11.50;3.27;;;10.70;99.90;;;;;;5036353;28;20207;-76
2024/02/19 08:47:49;;;;;;;7.67;2.50;;;10.80;99.90;;;;;;5059624;28;20195;-74
2024/02/19 08:50:15;;;;;;;13.53;4.03;;;10.90;99.90;;;;;;5052152;28;20227;-74
2024/02/19 08:52:40;;;;;;;11.43;3.23;;;11.00;99.90;;;;;;5048224;28;20188;-75
2024/02/19 08:55:06;;;;;;;9.83;3.50;;;11.10;99.90;;;;;;5026229;28;20185;-75
2024/02/19 08:57:31;;;;;;;11.67;3.70;;;11.10;99.90;;;;;;5050364;28;20245;-74
2024/02/19 08:59:57;;;;;;;6.50;3.00;;;11.10;99.90;;;;;;5032459;28;20578;-76
2024/02/19 09:02:24;;;;;;;14.37;4.40;;;11.20;99.90;;;;;;5054069;28;20192;-73
2024/02/19 09:04:50;;;;;;;12.37;4.27;;;11.20;99.90;;;;;;5040524;28;20275;-75
2024/02/19 09:07:15;;;;;;;9.80;4.47;;;11.30;99.90;;;;;;5012354;28;20488;-76
2024/02/19 09:09:44;;;;;;;7.13;3.43;;;11.30;99.90;;;;;;5053251;28;20200;-74
2024/02/19 09:12:13;;;;;;;10.03;4.30;;;11.40;99.90;;;;;;5051765;28;20238;-73
2024/02/19 09:14:39;;;;;;;9.53;4.60;;;11.40;99.90;;;;;;5051733;28;20424;-74
2024/02/19 09:17:05;;;;;;;11.50;4.20;;;11.50;99.90;;;;;;5023962;28;20456;-75
2024/02/19 09:19:32;;;;;;;13.70;5.10;;;11.50;99.90;;;;;;5034255;28;20197;-76
2024/02/19 09:21:57;;;;;;;7.83;4.03;;;11.60;99.90;;;;;;5030109;28;20711;-75
2024/02/19 09:24:23;;;;;;;13.77;5.10;;;11.60;99.90;;;;;;5058970;28;20455;-73
2024/02/19 09:26:49;;;;;;;14.83;5.50;;;11.60;99.90;;;;;;5055198;28;20220;-75
2024/02/19 09:29:15;;;;;;;12.50;6.70;;;11.60;99.90;;;;;;5039379;28;20182;-75
2024/02/19 09:31:41;;;;;;;13.10;5.53;;;11.60;99.90;;;;;;5020126;28;20271;-78
2024/02/19 09:34:06;;;;;;;9.30;5.37;;;11.60;99.90;;;;;;5043093;28;20430;-74
2024/02/19 09:36:32;;;;;;;12.27;5.97;;;11.60;99.90;;;;;;5029956;28;20222;-76
2024/02/19 09:38:58;;;;;;;15.63;6.33;;;11.70;99.90;;;;;;5021647;28;20204;-74
2024/02/19 09:41:56;;;;;;;15.73;5.83;;;11.80;99.90;;;;;;5042021;28;20197;-83
2024/02/19 09:44:30;;;;;;;13.80;5.97;;;12.00;99.90;;;;;;5029285;28;20167;-84
2024/02/19 09:47:02;;;;;;;9.00;5.00;;;12.10;99.90;;;;;;5035630;28;20456;-72
2024/02/19 09:49:30;;;;;;;14.27;6.37;;;12.10;99.90;;;;;;5039252;28;20492;-73
2024/02/19 09:51:59;;;;;;;13.23;6.90;;;12.20;99.90;;;;;;5034504;28;20437;-75
2024/02/19 09:54:27;;;;;;;10.83;6.77;;;12.20;99.90;;;;;;5025575;28;20514;-73
2024/02/19 09:56:54;;;;;;;13.93;6.50;;;12.20;99.90;;;;;;5021702;28;21049;-72
2024/02/19 09:59:21;;;;;;;15.10;7.10;;;12.30;99.90;;;;;;5028158;28;20436;-70
2024/02/19 10:01:47;;;;;;;17.47;7.50;;;12.40;99.90;;;;;;5031779;28;20468;-71
2024/02/19 10:04:14;;;;;;;10.07;5.53;;;12.50;99.90;;;;;;5029204;28;20426;-71
2024/02/19 10:06:41;;;;;;;12.70;5.80;;;12.60;99.90;;;;;;5023765;28;20249;-73
2024/02/19 10:09:08;;;;;;;15.63;6.40;;;12.70;99.90;;;;;;5032781;28;20724;-73
2024/02/19 10:11:36;;;;;;;20.50;7.93;;;12.70;99.90;;;;;;5025890;28;20461;-74
2024/02/19 10:14:06;;;;;;;15.27;6.80;;;12.70;99.90;;;;;;5034310;28;20636;-71
2024/02/19 10:16:31;;;;;;;13.17;8.30;;;12.80;99.90;;;;;;5032041;28;20472;-73
2024/02/19 10:19:07;;;;;;;12.87;6.30;;;12.90;99.90;;;;;;5026293;28;20417;-72
2024/02/19 10:21:34;;;;;;;11.00;6.33;;;13.00;99.90;;;;;;5031083;28;20196;-71
2024/02/19 10:23:59;;;;;;;13.43;5.60;;;13.00;99.90;;;;;;5037724;28;20425;-70
2024/02/19 10:26:25;;;;;;;13.10;6.30;;;13.00;99.90;;;;;;5031994;28;20452;-73
2024/02/19 10:28:57;;;;;;;15.10;5.30;;;13.00;99.90;;;;;;5027891;28;20426;-73
2024/02/19 10:31:23;;;;;;;12.00;6.83;;;13.10;99.90;;;;;;5040551;28;20553;-71
2024/02/19 10:33:49;;;;;;;9.87;6.60;;;13.20;99.90;;;;;;5047374;28;20432;-73
2024/02/19 10:36:18;;;;;;;11.20;6.13;;;13.20;99.90;;;;;;5037446;28;20457;-72
2024/02/19 10:38:44;;;;;;;11.23;6.20;;;13.20;99.90;;;;;;5037954;28;20182;-71
2024/02/19 10:41:09;;;;;;;12.83;6.53;;;13.20;99.90;;;;;;5009724;28;20475;-73
2024/02/19 10:43:36;;;;;;;19.80;7.80;;;13.20;99.90;;;;;;5033701;28;20443;-73
2024/02/19 10:46:04;;;;;;;14.73;5.97;;;13.20;99.90;;;;;;5040729;28;20297;-71
2024/02/19 10:48:30;;;;;;;12.27;6.17;;;13.10;99.90;;;;;;5049401;28;20679;-69
2024/02/19 10:50:56;;;;;;;13.93;5.57;;;13.10;99.90;;;;;;5041990;28;20953;-71
2024/02/19 10:53:28;;;;;;;10.50;6.10;;;13.00;99.90;;;;;;5036019;28;20433;-73
2024/02/19 10:56:09;;;;;;;13.30;6.17;;;12.90;99.90;;;;;;5046022;28;20225;-74
2024/02/19 10:58:35;;;;;;;14.43;5.90;;;12.80;99.90;;;;;;5052643;28;20919;-72
2024/02/19 11:01:04;;;;;;;10.90;4.93;;;12.70;99.90;;;;;;5051338;28;20417;-71
2024/02/19 11:03:30;;;;;;;7.30;4.50;;;12.70;99.90;;;;;;5032626;28;20755;-71
2024/02/19 11:06:01;;;;;;;18.27;6.47;;;12.70;99.90;;;;;;5046487;28;20716;-72
2024/02/19 11:08:34;;;;;;;15.67;6.27;;;12.70;99.90;;;;;;5052116;28;20474;-73
2024/02/19 11:11:02;;;;;;;11.03;6.13;;;12.70;99.90;;;;;;5030387;28;20460;-72
2024/02/19 11:13:28;;;;;;;14.80;6.57;;;12.80;99.90;;;;;;5031063;28;20417;-73
2024/02/19 11:15:54;;;;;;;12.70;6.03;;;12.80;99.90;;;;;;5047298;28;20482;-71
2024/02/19 11:18:20;;;;;;;16.80;6.30;;;12.90;99.90;;;;;;5044155;28;20194;-72
2024/02/19 11:20:47;;;;;;;10.07;5.20;;;13.00;99.90;;;;;;5054778;28;20283;-73
2024/02/19 11:23:17;;;;;;;12.90;7.37;;;13.20;99.90;;;;;;5059666;28;20470;-71
2024/02/19 11:25:44;;;;;;;16.30;6.37;;;13.30;99.90;;;;;;5032580;28;20461;-72
2024/02/19 11:28:13;;;;;;;15.33;6.67;;;13.50;99.90;;;;;;5029981;28;20439;-72
2024/02/19 11:30:39;;;;;;;14.40;6.33;;;13.80;99.90;;;;;;5034855;28;20494;-71
2024/02/19 11:33:05;;;;;;;14.27;5.80;;;13.90;99.90;;;;;;5045585;28;20440;-73
2024/02/19 11:35:35;;;;;;;14.87;6.53;;;14.00;99.90;;;;;;5013003;28;20198;-72
2024/02/19 11:38:01;;;;;;;14.60;5.90;;;14.10;99.90;;;;;;5031348;28;20499;-73
2024/02/19 11:40:33;;;;;;;14.40;8.50;;;14.30;99.90;;;;;;5044207;28;20438;-71
2024/02/19 11:43:03;;;;;;;17.70;8.40;;;14.30;99.90;;;;;;5048506;28;20191;-71
2024/02/19 11:45:30;;;;;;;12.87;7.17;;;14.30;99.90;;;;;;5037706;28;20425;-73
2024/02/19 11:47:57;;;;;;;12.50;7.30;;;14.30;99.90;;;;;;5041600;28;20458;-73
2024/02/19 11:50:29;;;;;;;16.17;7.13;;;14.20;99.90;;;;;;5059344;28;20787;-75
2024/02/19 11:52:58;;;;;;;14.90;7.30;;;14.10;99.90;;;;;;5033844;28;20440;-74
2024/02/19 11:55:24;;;;;;;12.50;6.73;;;14.00;99.90;;;;;;5054207;28;20526;-75
2024/02/19 11:57:51;;;;;;;11.40;7.00;;;13.80;99.90;;;;;;5065472;28;20393;-73
2024/02/19 12:00:17;;;;;;;11.03;5.83;;;13.50;99.90;;;;;;5050834;28;20511;-71
2024/02/19 12:02:43;;;;;;;12.60;7.50;;;13.40;99.90;;;;;;5032366;28;20427;-70
2024/02/19 12:05:10;;;;;;;16.10;7.33;;;13.20;99.90;;;;;;5034602;28;20499;-76
2024/02/19 12:07:37;;;;;;;15.43;7.93;;;13.20;99.90;;;;;;5049653;28;20867;-73
2024/02/19 12:10:03;;;;;;;17.70;7.20;;;13.20;99.90;;;;;;5054443;28;20470;-74
2024/02/19 12:12:31;;;;;;;17.10;6.80;;;13.10;99.90;;;;;;5060460;28;20414;-72
2024/02/19 12:15:00;;;;;;;14.00;8.53;;;13.10;99.90;;;;;;5055421;28;20421;-72
2024/02/19 12:17:26;;;;;;;19.30;8.67;;;13.10;99.90;;;;;;5009228;28;20937;-74
2024/02/19 12:19:51;;;;;;;11.60;6.37;;;13.00;99.90;;;;;;5038248;28;20437;-72
2024/02/19 12:22:17;;;;;;;10.03;6.20;;;13.00;99.90;;;;;;5051823;28;20182;-75
2024/02/19 12:24:43;;;;;;;13.93;6.70;;;12.90;99.90;;;;;;5025344;28;20186;-72
2024/02/19 12:27:08;;;;;;;12.70;7.13;;;12.70;99.90;;;;;;5039330;28;20686;-72
2024/02/19 12:29:34;;;;;;;12.50;6.00;;;12.50;99.90;;;;;;5051351;28;20208;-72
2024/02/19 12:32:00;;;;;;;11.30;7.63;;;12.40;99.90;;;;;;5058507;28;20214;-72
2024/02/19 12:34:25;;;;;;;14.23;7.67;;;12.30;99.90;;;;;;5036298;28;20291;-74
2024/02/19 12:36:51;;;;;;;11.13;6.07;;;12.30;99.90;;;;;;5040253;28;20185;-74
2024/02/19 12:39:17;;;;;;;13.33;7.17;;;12.40;99.90;;;;;;5039455;28;20190;-74
2024/02/19 12:41:46;;;;;;;10.03;6.53;;;12.60;99.90;;;;;;5053396;28;20248;-74
2024/02/19 12:44:12;;;;;;;10.90;5.53;;;12.70;99.90;;;;;;5016891;28;20421;-72